Wetterdaten: Woche 25.03.13 - 31.03.13 (KW13)
Datum Zeit Temperatur Luftfeuchte Luftdruck Niederschlag Windrichtung Sonnenschein Solar Wind
25.03.2013 00:00 -1,9 C 92 % 1006,5 hPa 0,4 l/m O-NO 0,00 h 0 W/m 13,2 km/h (3 Bft)
25.03.2013 01:00 -2,1 C 92 % 1006,3 hPa 0,4 l/m O-NO 0,00 h 0 W/m 15,3 km/h (3 Bft)
25.03.2013 02:00 -2,2 C 92 % 1006,1 hPa 0,2 l/m O-NO 0,00 h 0 W/m 13,6 km/h (3 Bft)
25.03.2013 03:00 -2,3 C 92 % 1006,0 hPa 0,4 l/m O-NO 0,00 h 0 W/m 12,6 km/h (3 Bft)
25.03.2013 04:00 -2,4 C 91 % 1005,9 hPa 0,0 l/m O-NO 0,00 h 0 W/m 16,0 km/h (3 Bft)
25.03.2013 05:00 -2,6 C 89 % 1006,1 hPa 0,2 l/m O 0,00 h 0 W/m 16,1 km/h (3 Bft)
25.03.2013 06:00 -2,6 C 90 % 1006,3 hPa 0,0 l/m O 0,00 h 6 W/m 16,6 km/h (3 Bft)
25.03.2013 07:00 -2,6 C 91 % 1006,4 hPa 0,0 l/m O 0,00 h 14 W/m 12,9 km/h (3 Bft)
25.03.2013 08:00 -2,4 C 91 % 1006,4 hPa 0,0 l/m O 0,00 h 33 W/m 15,8 km/h (3 Bft)
25.03.2013 09:00 -2,2 C 91 % 1006,7 hPa 0,0 l/m O-NO 0,00 h 49 W/m 13,4 km/h (3 Bft)
25.03.2013 10:00 -1,9 C 90 % 1006,7 hPa 0,0 l/m O-NO 0,00 h 57 W/m 14,1 km/h (3 Bft)
25.03.2013 11:00 -1,8 C 90 % 1006,7 hPa 0,0 l/m N-NO 0,00 h 57 W/m 11,7 km/h (2 Bft)
25.03.2013 12:00 -2,2 C 90 % 1006,7 hPa 0,0 l/m NO 0,00 h 70 W/m 14,5 km/h (3 Bft)
25.03.2013 13:00 -2,1 C 90 % 1006,6 hPa 0,0 l/m NO 0,00 h 74 W/m 13,6 km/h (3 Bft)
25.03.2013 14:00 -1,7 C 89 % 1006,6 hPa 0,0 l/m O-NO 0,00 h 90 W/m 15,8 km/h (3 Bft)
25.03.2013 15:00 -1,5 C 88 % 1006,7 hPa 0,0 l/m O-NO 0,00 h 65 W/m 14,1 km/h (3 Bft)
25.03.2013 16:00 -1,6 C 89 % 1006,7 hPa 0,2 l/m O-NO 0,00 h 48 W/m 12,4 km/h (3 Bft)
25.03.2013 17:00 -1,9 C 90 % 1006,6 hPa 0,2 l/m NO 0,00 h 27 W/m 11,6 km/h (2 Bft)
25.03.2013 18:00 -2,1 C 91 % 1006,8 hPa 0,2 l/m NO 0,00 h 10 W/m 10,6 km/h (2 Bft)
25.03.2013 19:00 -2,3 C 92 % 1007,1 hPa 0,2 l/m NO 0,00 h 0 W/m 10,6 km/h (2 Bft)
25.03.2013 20:00 -2,6 C 93 % 1007,3 hPa 0,4 l/m NO 0,00 h 0 W/m 11,3 km/h (2 Bft)
25.03.2013 21:00 -2,9 C 93 % 1007,2 hPa 0,2 l/m O-NO 0,00 h 0 W/m 11,3 km/h (2 Bft)
25.03.2013 22:00 -3,2 C 93 % 1007,1 hPa 0,0 l/m NO 0,00 h 0 W/m 11,2 km/h (2 Bft)
25.03.2013 23:00 -3,4 C 92 % 1006,8 hPa 0,2 l/m NO 0,00 h 0 W/m 11,4 km/h (2 Bft)
26.03.2013 00:00 -3,6 C 92 % 1006,3 hPa 0,0 l/m NO 0,00 h 0 W/m 9,3 km/h (2 Bft)
26.03.2013 01:00 -3,6 C 92 % 1006,1 hPa 0,0 l/m NO 0,00 h 0 W/m 11,0 km/h (2 Bft)
26.03.2013 02:00 -3,7 C 92 % 1005,9 hPa 0,0 l/m O-NO 0,00 h 0 W/m 10,3 km/h (2 Bft)
26.03.2013 03:00 -3,7 C 93 % 1005,6 hPa 0,0 l/m NO 0,00 h 0 W/m 10,2 km/h (2 Bft)
26.03.2013 04:00 -3,9 C 94 % 1005,7 hPa 0,0 l/m O-NO 0,00 h 0 W/m 10,5 km/h (2 Bft)
26.03.2013 05:00 -4,0 C 94 % 1005,8 hPa 0,4 l/m O-NO 0,00 h 0 W/m 11,4 km/h (2 Bft)
26.03.2013 06:00 -4,2 C 94 % 1005,9 hPa 0,4 l/m O-NO 0,00 h 13 W/m 9,1 km/h (2 Bft)
26.03.2013 07:00 -4,1 C 94 % 1006,1 hPa 0,6 l/m NO 0,00 h 47 W/m 9,8 km/h (2 Bft)
26.03.2013 08:00 -3,8 C 93 % 1006,2 hPa 0,4 l/m O-NO 0,00 h 83 W/m 12,1 km/h (2 Bft)
26.03.2013 09:00 -3,4 C 92 % 1006,3 hPa 0,6 l/m O-NO 0,00 h 119 W/m 12,9 km/h (3 Bft)
26.03.2013 10:00 -2,9 C 92 % 1006,5 hPa 0,6 l/m O-NO 0,00 h 162 W/m 11,7 km/h (2 Bft)
26.03.2013 11:00 -2,5 C 89 % 1006,5 hPa 0,4 l/m O-NO 0,00 h 223 W/m 13,6 km/h (3 Bft)
26.03.2013 12:00 -2,3 C 86 % 1006,5 hPa 0,6 l/m O 0,00 h 206 W/m 12,8 km/h (3 Bft)
26.03.2013 13:00 -2,5 C 86 % 1006,7 hPa 0,4 l/m O-NO 0,00 h 182 W/m 10,6 km/h (2 Bft)
26.03.2013 14:00 -2,6 C 88 % 1007,1 hPa 0,4 l/m O 0,00 h 135 W/m 12,5 km/h (3 Bft)
26.03.2013 15:00 -2,7 C 89 % 1007,5 hPa 0,4 l/m O 0,00 h 102 W/m 12,2 km/h (2 Bft)
26.03.2013 16:00 -3,2 C 89 % 1007,8 hPa 0,2 l/m O-SO 0,00 h 76 W/m 11,0 km/h (2 Bft)
26.03.2013 17:00 -3,2 C 90 % 1008,1 hPa 0,2 l/m O 0,00 h 37 W/m 7,6 km/h (2 Bft)
26.03.2013 18:00 -3,4 C 91 % 1008,5 hPa 0,2 l/m O-NO 0,00 h 10 W/m 7,5 km/h (2 Bft)
26.03.2013 19:00 -3,9 C 92 % 1008,9 hPa 0,2 l/m O-NO 0,00 h 0 W/m 8,3 km/h (2 Bft)
26.03.2013 20:00 -4,1 C 92 % 1009,3 hPa 0,0 l/m O-NO 0,00 h 0 W/m 5,1 km/h (1 Bft)
26.03.2013 21:00 -4,2 C 93 % 1009,4 hPa 0,0 l/m NO 0,00 h 0 W/m 5,3 km/h (1 Bft)
26.03.2013 22:00 -4,4 C 93 % 1009,3 hPa 0,0 l/m NO 0,00 h 0 W/m 6,4 km/h (2 Bft)
26.03.2013 23:00 -4,8 C 92 % 1009,1 hPa 0,0 l/m NO 0,00 h 0 W/m 5,2 km/h (1 Bft)
27.03.2013 00:00 -5,4 C 92 % 1008,8 hPa 0,0 l/m N 0,00 h 0 W/m 2,3 km/h (1 Bft)
27.03.2013 01:00 -6,2 C 92 % 1008,8 hPa 0,0 l/m N 0,00 h 0 W/m 3,1 km/h (1 Bft)
27.03.2013 02:00 -6,2 C 93 % 1008,5 hPa 0,0 l/m NO 0,00 h 0 W/m 2,9 km/h (1 Bft)
27.03.2013 03:00 -5,8 C 93 % 1008,2 hPa 0,0 l/m N 0,00 h 0 W/m 3,6 km/h (1 Bft)
27.03.2013 04:00 -5,8 C 93 % 1008,0 hPa 0,0 l/m NO 0,00 h 0 W/m 4,0 km/h (1 Bft)
27.03.2013 05:00 -5,7 C 93 % 1007,8 hPa 0,0 l/m NO 0,00 h 0 W/m 5,9 km/h (2 Bft)
27.03.2013 06:00 -5,5 C 93 % 1007,8 hPa 0,0 l/m O-NO 0,00 h 12 W/m 7,8 km/h (2 Bft)
27.03.2013 07:00 -5,2 C 92 % 1007,7 hPa 0,0 l/m O-NO 0,00 h 60 W/m 8,9 km/h (2 Bft)
27.03.2013 08:00 -4,6 C 90 % 1007,7 hPa 0,0 l/m O-NO 0,00 h 128 W/m 8,7 km/h (2 Bft)
27.03.2013 09:00 -3,7 C 87 % 1007,7 hPa 0,0 l/m O-NO 0,00 h 189 W/m 12,1 km/h (2 Bft)
27.03.2013 10:00 -2,8 C 85 % 1007,9 hPa 0,0 l/m O-NO 0,00 h 222 W/m 10,9 km/h (2 Bft)
27.03.2013 11:00 -1,9 C 82 % 1008,2 hPa 0,0 l/m NO 0,00 h 257 W/m 11,2 km/h (2 Bft)
27.03.2013 12:00 -1,3 C 79 % 1008,3 hPa 0,0 l/m O-NO 0,00 h 267 W/m 9,8 km/h (2 Bft)
27.03.2013 13:00 -1,1 C 79 % 1008,2 hPa 0,0 l/m O-NO 0,00 h 269 W/m 8,3 km/h (2 Bft)
27.03.2013 14:00 -0,7 C 78 % 1007,9 hPa 0,0 l/m NO 0,00 h 256 W/m 9,4 km/h (2 Bft)
27.03.2013 15:00 -0,4 C 78 % 1007,8 hPa 0,0 l/m O-NO 0,00 h 204 W/m 10,5 km/h (2 Bft)
27.03.2013 16:00 -0,3 C 78 % 1007,9 hPa 0,0 l/m O-NO 0,00 h 151 W/m 10,9 km/h (2 Bft)
27.03.2013 17:00 -0,5 C 79 % 1008,1 hPa 0,0 l/m O-NO 0,00 h 73 W/m 9,7 km/h (2 Bft)
27.03.2013 18:00 -1,1 C 81 % 1008,4 hPa 0,0 l/m O-NO 0,00 h 16 W/m 7,1 km/h (2 Bft)
27.03.2013 19:00 -1,9 C 83 % 1008,8 hPa 0,0 l/m N-NO 0,00 h 0 W/m 4,4 km/h (1 Bft)
27.03.2013 20:00 -2,2 C 85 % 1009,2 hPa 0,0 l/m N 0,00 h 0 W/m 3,7 km/h (1 Bft)
27.03.2013 21:00 -2,2 C 87 % 1009,5 hPa 0,0 l/m O-NO 0,00 h 0 W/m 3,9 km/h (1 Bft)
27.03.2013 22:00 -2,4 C 87 % 1009,0 hPa 0,0 l/m N 0,00 h 0 W/m 2,0 km/h (1 Bft)
27.03.2013 23:00 -3,3 C 86 % 1008,8 hPa 0,0 l/m N 0,00 h 0 W/m 0,0 km/h (0 Bft)
28.03.2013 00:00 -4,5 C 86 % 1008,4 hPa 0,0 l/m N 0,00 h 0 W/m 0,0 km/h (0 Bft)
28.03.2013 01:00 -5,5 C 88 % 1008,1 hPa 0,0 l/m N 0,00 h 0 W/m 1,1 km/h (0 Bft)
28.03.2013 02:00 -6,1 C 90 % 1007,8 hPa 0,0 l/m N-NO 0,00 h 0 W/m 2,9 km/h (1 Bft)
28.03.2013 03:00 -6,1 C 92 % 1007,6 hPa 0,0 l/m N 0,00 h 0 W/m 1,9 km/h (1 Bft)
28.03.2013 04:00 -5,5 C 93 % 1007,7 hPa 0,0 l/m N-NO 0,00 h 0 W/m 3,2 km/h (1 Bft)
28.03.2013 05:00 -4,8 C 94 % 1007,5 hPa 0,0 l/m N 0,00 h 0 W/m 1,7 km/h (1 Bft)
28.03.2013 06:00 -4,5 C 94 % 1007,4 hPa 0,0 l/m N 0,00 h 11 W/m 4,0 km/h (1 Bft)
28.03.2013 07:00 -4,1 C 94 % 1007,6 hPa 0,0 l/m N 0,00 h 36 W/m 3,3 km/h (1 Bft)
28.03.2013 08:00 -3,1 C 94 % 1007,5 hPa 0,0 l/m N 0,00 h 94 W/m 4,7 km/h (1 Bft)
28.03.2013 09:00 -1,6 C 92 % 1007,5 hPa 0,0 l/m N 0,17 h 203 W/m 3,3 km/h (1 Bft)
28.03.2013 10:00 0,2 C 86 % 1007,2 hPa 0,0 l/m N 0,67 h 423 W/m 5,1 km/h (1 Bft)
28.03.2013 11:00 2,0 C 82 % 1006,7 hPa 0,0 l/m O 0,50 h 454 W/m 5,3 km/h (1 Bft)
28.03.2013 12:00 2,8 C 83 % 1006,5 hPa 0,0 l/m S-SO 0,00 h 162 W/m 3,3 km/h (1 Bft)
28.03.2013 13:00 3,1 C 84 % 1006,4 hPa 0,0 l/m S-SO 0,00 h 123 W/m 1,9 km/h (1 Bft)
28.03.2013 14:00 2,6 C 89 % 1006,2 hPa 0,6 l/m S-SO 0,00 h 102 W/m 3,9 km/h (1 Bft)
28.03.2013 15:00 2,2 C 92 % 1005,7 hPa 0,2 l/m O-NO 0,00 h 95 W/m 4,1 km/h (1 Bft)
28.03.2013 16:00 2,2 C 94 % 1005,6 hPa 0,0 l/m N 0,00 h 67 W/m 1,7 km/h (1 Bft)
28.03.2013 17:00 2,3 C 95 % 1005,4 hPa 0,4 l/m N 0,00 h 25 W/m 0,7 km/h (0 Bft)
28.03.2013 18:00 2,3 C 95 % 1005,6 hPa 1,2 l/m N 0,00 h 7 W/m 0,4 km/h (0 Bft)
28.03.2013 19:00 2,2 C 95 % 1005,8 hPa 1,6 l/m N 0,00 h 0 W/m 0,0 km/h (0 Bft)
28.03.2013 20:00 1,8 C 95 % 1005,9 hPa 1,6 l/m O-NO 0,00 h 0 W/m 2,5 km/h (1 Bft)
28.03.2013 21:00 1,7 C 96 % 1005,8 hPa 0,6 l/m O-SO 0,00 h 0 W/m 3,2 km/h (1 Bft)
28.03.2013 22:00 1,7 C 96 % 1006,1 hPa 1,4 l/m W-SW 0,00 h 0 W/m 11,5 km/h (2 Bft)
28.03.2013 23:00 1,6 C 96 % 1006,4 hPa 0,6 l/m W-SW 0,00 h 0 W/m 13,2 km/h (3 Bft)
29.03.2013 00:00 1,5 C 97 % 1006,7 hPa 0,2 l/m SW 0,00 h 0 W/m 10,1 km/h (2 Bft)
29.03.2013 01:00 1,6 C 97 % 1006,9 hPa 0,0 l/m W 0,00 h 0 W/m 5,7 km/h (1 Bft)
29.03.2013 02:00 1,4 C 97 % 1006,5 hPa 0,0 l/m W 0,00 h 0 W/m 7,5 km/h (2 Bft)
29.03.2013 03:00 1,1 C 97 % 1006,7 hPa 0,0 l/m SW 0,00 h 0 W/m 9,7 km/h (2 Bft)
29.03.2013 04:00 0,8 C 97 % 1007,2 hPa 0,0 l/m W-NW 0,00 h 0 W/m 12,0 km/h (2 Bft)
29.03.2013 05:00 0,1 C 95 % 1007,8 hPa 0,0 l/m W-NW 0,00 h 0 W/m 7,3 km/h (2 Bft)
29.03.2013 06:00 -0,1 C 91 % 1008,4 hPa 0,0 l/m W-NW 0,00 h 21 W/m 11,7 km/h (2 Bft)
29.03.2013 07:00 0,0 C 88 % 1008,5 hPa 0,0 l/m W-NW 0,25 h 102 W/m 7,1 km/h (2 Bft)
29.03.2013 08:00 0,7 C 83 % 1008,1 hPa 0,0 l/m W 0,92 h 286 W/m 8,4 km/h (2 Bft)
29.03.2013 09:00 1,5 C 71 % 1007,5 hPa 0,0 l/m W-SW 0,92 h 427 W/m 9,3 km/h (2 Bft)
29.03.2013 10:00 2,4 C 65 % 1007,2 hPa 0,0 l/m SW 0,33 h 364 W/m 9,3 km/h (2 Bft)
29.03.2013 11:00 3,2 C 61 % 1006,8 hPa 0,0 l/m SW 0,92 h 681 W/m 13,4 km/h (3 Bft)
29.03.2013 12:00 3,9 C 61 % 1006,2 hPa 0,0 l/m SW 0,67 h 571 W/m 11,3 km/h (2 Bft)
29.03.2013 13:00 4,8 C 61 % 1005,5 hPa 0,0 l/m W-SW 1,00 h 552 W/m 15,7 km/h (3 Bft)
29.03.2013 14:00 5,0 C 61 % 1004,8 hPa 0,0 l/m W 0,58 h 379 W/m 14,0 km/h (3 Bft)
29.03.2013 15:00 4,4 C 65 % 1004,6 hPa 0,0 l/m SW 0,00 h 124 W/m 16,0 km/h (3 Bft)
29.03.2013 16:00 3,5 C 72 % 1004,5 hPa 0,0 l/m SW 0,00 h 68 W/m 15,4 km/h (3 Bft)
29.03.2013 17:00 2,5 C 85 % 1004,5 hPa 0,0 l/m S-SW 0,00 h 36 W/m 11,2 km/h (2 Bft)
29.03.2013 18:00 1,9 C 89 % 1004,6 hPa 0,0 l/m S-SW 0,00 h 11 W/m 10,9 km/h (2 Bft)
29.03.2013 19:00 1,3 C 92 % 1004,9 hPa 0,0 l/m S-SW 0,00 h 0 W/m 8,7 km/h (2 Bft)
29.03.2013 20:00 0,9 C 93 % 1004,9 hPa 0,0 l/m S-SW 0,00 h 0 W/m 6,8 km/h (2 Bft)
29.03.2013 21:00 0,7 C 94 % 1004,8 hPa 0,0 l/m S-SW 0,00 h 0 W/m 5,2 km/h (1 Bft)
29.03.2013 22:00 0,5 C 95 % 1004,6 hPa 0,0 l/m S-SW 0,00 h 0 W/m 3,3 km/h (1 Bft)
29.03.2013 23:00 0,3 C 95 % 1004,4 hPa 0,0 l/m N 0,00 h 0 W/m 0,3 km/h (0 Bft)
30.03.2013 00:00 0,2 C 95 % 1003,8 hPa 1,0 l/m N 0,00 h 0 W/m 0,0 km/h (0 Bft)
30.03.2013 01:00 0,2 C 96 % 1003,4 hPa 0,4 l/m N 0,00 h 0 W/m 0,0 km/h (0 Bft)
30.03.2013 02:00 0,2 C 96 % 1003,0 hPa 0,6 l/m N 0,00 h 0 W/m 0,0 km/h (0 Bft)
30.03.2013 03:00 0,2 C 96 % 1002,6 hPa 0,4 l/m N 0,00 h 0 W/m 0,0 km/h (0 Bft)
30.03.2013 04:00 0,3 C 96 % 1002,1 hPa 0,2 l/m N 0,00 h 0 W/m 0,0 km/h (0 Bft)
30.03.2013 05:00 0,3 C 96 % 1002,0 hPa 0,2 l/m N 0,00 h 0 W/m 0,0 km/h (0 Bft)
30.03.2013 06:00 0,4 C 97 % 1001,9 hPa 0,0 l/m N 0,00 h 14 W/m 0,0 km/h (0 Bft)
30.03.2013 07:00 0,6 C 97 % 1001,6 hPa 0,0 l/m N 0,00 h 31 W/m 2,1 km/h (1 Bft)
30.03.2013 08:00 0,9 C 97 % 1001,4 hPa 0,2 l/m O 0,00 h 53 W/m 3,7 km/h (1 Bft)
30.03.2013 09:00 1,3 C 97 % 1001,1 hPa 0,0 l/m NO 0,00 h 72 W/m 6,3 km/h (2 Bft)
30.03.2013 10:00 1,4 C 97 % 1001,1 hPa 0,0 l/m NO 0,00 h 100 W/m 5,6 km/h (1 Bft)
30.03.2013 11:00 1,8 C 96 % 1001,2 hPa 0,0 l/m NO 0,00 h 78 W/m 6,4 km/h (2 Bft)
30.03.2013 12:00 2,3 C 95 % 1001,2 hPa 0,0 l/m NO 0,00 h 94 W/m 6,8 km/h (2 Bft)
30.03.2013 13:00 2,8 C 95 % 1000,9 hPa 0,0 l/m NO 0,00 h 74 W/m 7,3 km/h (2 Bft)
30.03.2013 14:00 3,1 C 95 % 1000,7 hPa 0,0 l/m NO 0,00 h 64 W/m 5,9 km/h (2 Bft)
30.03.2013 15:00 3,1 C 95 % 1000,8 hPa 0,6 l/m NO 0,00 h 63 W/m 5,3 km/h (1 Bft)
30.03.2013 16:00 3,0 C 96 % 1001,0 hPa 0,4 l/m N-NO 0,00 h 39 W/m 6,8 km/h (2 Bft)
30.03.2013 17:00 2,8 C 96 % 1001,4 hPa 0,2 l/m N-NO 0,00 h 22 W/m 8,2 km/h (2 Bft)
30.03.2013 18:00 2,6 C 96 % 1002,0 hPa 0,0 l/m N-NO 0,00 h 8 W/m 6,4 km/h (2 Bft)
30.03.2013 19:00 2,4 C 96 % 1002,8 hPa 0,0 l/m N-NO 0,00 h 0 W/m 5,7 km/h (1 Bft)
30.03.2013 20:00 2,3 C 96 % 1003,3 hPa 0,0 l/m N-NO 0,00 h 0 W/m 4,5 km/h (1 Bft)
30.03.2013 21:00 2,1 C 96 % 1003,3 hPa 0,0 l/m N-NO 0,00 h 0 W/m 6,5 km/h (2 Bft)
30.03.2013 22:00 1,7 C 96 % 1003,4 hPa 0,0 l/m N-NO 0,00 h 0 W/m 6,5 km/h (2 Bft)
30.03.2013 23:00 1,3 C 96 % 1003,5 hPa 0,2 l/m N-NO 0,00 h 0 W/m 5,7 km/h (1 Bft)
31.03.2013 00:00 0,9 C 96 % 1003,6 hPa 0,0 l/m N-NO 0,00 h 0 W/m 6,7 km/h (2 Bft)
31.03.2013 01:00 0,7 C 96 % 1003,5 hPa 0,0 l/m N-NO 0,00 h 0 W/m 9,1 km/h (2 Bft)
31.03.2013 03:00 0,6 C 96 % 1003,5 hPa 0,2 l/m N-NO 0,00 h 0 W/m 10,7 km/h (2 Bft)
31.03.2013 04:00 0,3 C 96 % 1003,4 hPa 0,2 l/m N-NO 0,00 h 0 W/m 10,1 km/h (2 Bft)
31.03.2013 05:00 0,0 C 96 % 1003,4 hPa 0,2 l/m N-NO 0,00 h 0 W/m 11,8 km/h (2 Bft)
31.03.2013 06:00 -0,2 C 96 % 1003,9 hPa 0,2 l/m N-NO 0,00 h 0 W/m 13,0 km/h (3 Bft)
31.03.2013 07:00 -0,5 C 96 % 1004,5 hPa 0,2 l/m N-NO 0,00 h 10 W/m 12,5 km/h (3 Bft)
31.03.2013 08:00 -0,6 C 96 % 1005,1 hPa 0,2 l/m N-NO 0,00 h 26 W/m 12,2 km/h (2 Bft)
31.03.2013 09:00 -0,5 C 96 % 1005,6 hPa 0,0 l/m N-NO 0,00 h 65 W/m 10,3 km/h (2 Bft)
31.03.2013 10:00 -0,0 C 96 % 1006,1 hPa 0,0 l/m N-NO 0,00 h 114 W/m 10,9 km/h (2 Bft)
31.03.2013 11:00 0,3 C 94 % 1006,6 hPa 0,0 l/m N-NO 0,00 h 140 W/m 9,7 km/h (2 Bft)
31.03.2013 12:00 0,5 C 92 % 1007,0 hPa 0,0 l/m NO 0,00 h 155 W/m 9,2 km/h (2 Bft)
31.03.2013 13:00 1,1 C 90 % 1007,3 hPa 0,0 l/m NO 0,00 h 156 W/m 8,3 km/h (2 Bft)
31.03.2013 14:00 0,8 C 91 % 1007,5 hPa 0,0 l/m N 0,00 h 57 W/m 6,0 km/h (2 Bft)
31.03.2013 15:00 1,0 C 90 % 1007,5 hPa 0,0 l/m N-NO 0,00 h 136 W/m 3,5 km/h (1 Bft)
31.03.2013 16:00 1,3 C 88 % 1007,4 hPa 0,0 l/m NO 0,00 h 98 W/m 6,0 km/h (2 Bft)
31.03.2013 17:00 1,6 C 83 % 1007,4 hPa 0,0 l/m NO 0,00 h 98 W/m 5,2 km/h (1 Bft)
31.03.2013 18:00 1,7 C 80 % 1007,5 hPa 0,0 l/m NO 0,00 h 44 W/m 5,9 km/h (2 Bft)
31.03.2013 19:00 1,3 C 82 % 1007,8 hPa 0,0 l/m O-NO 0,00 h 12 W/m 6,9 km/h (2 Bft)
31.03.2013 20:00 0,8 C 87 % 1008,2 hPa 0,0 l/m O-NO 0,00 h 0 W/m 4,5 km/h (1 Bft)
31.03.2013 21:00 0,3 C 90 % 1008,6 hPa 0,0 l/m N 0,00 h 0 W/m 2,4 km/h (1 Bft)
31.03.2013 22:00 0,1 C 91 % 1008,6 hPa 0,0 l/m N 0,00 h 0 W/m 1,7 km/h (1 Bft)
31.03.2013 23:00 -0,3 C 91 % 1008,2 hPa 0,0 l/m O-NO 0,00 h 0 W/m 6,4 km/h (2 Bft)
Min-Datum _ 27.03.13 29.03.13 30.03.13 - - - - 27.03.13
_ Min-Zeit 01:45 11:50 15:00 - - - - 00:20
Minimum _ -6,4 C 58 % 1000,6 hPa - - - - 0,0 km/h (0 Bft)
Max-Datum _ 29.03.13 26.03.13 26.03.13 28.03.13 - 28.03.13 29.03.13 25.03.13
_ Max-Zeit 14:35 04:05 20:55 19:00 - 09:30 11:45 06:15
Maximum _ 5,4 C 100 % 1009,6 hPa 1,6 l/m - 0,08 h 751 W/m 22,5 km/h
O-NO (4 Bft)
Durchschnitt _ -0,8 C 90 % 1006,2 hPa #23,2 l/m O-NO #6:55 h 125 W/m 7,9 km/h (2 Bft)